Bend, OR

10:48 AM PDT on June 03, 2015 (GMT -0700)
MesoWest | | Change Station
CLOSE
Current Station
Personal Weather Station
Location: Bend, OR
Elevation: 3546 ft
Nearby Weather Stations

Elev 3546 ft 44.09 °N, 121.31 °W | Updated 58 minutes ago

Overcast
Overcast
55 °F
Feels Like 55 °F
N
8
Wind Variable Wind from NE
Gusts 0.0 mph

Today
High -- | Low -- °F
--% Chance of Precip.
Yesterday
High -- | Low -- °F
Precip. -- in
5:24 AM 8:42 PM
Full, 99% visible
Pressure 30.04 in
Visibility 10.0 miles
Clouds Mostly Cloudy 3100 ft
Dew Point 39 °F
Humidity 56%
Rainfall in
Snow Depth Not available.
UV 4 out of 12
Pollen 7.00 out of 12
Air Quality Not available.
Flu Activity Sporadic
SPECI KRDM 031703Z VRB03KT 10SM BKN031 12/05 A3004 RMK AO2 T01170050

More Conditions Fewer Conditions

Pressure 30.04 in
Visibility 10.0 miles
Clouds Mostly Cloudy 3100 ft
Dew Point 39 °F
Humidity 56%
Rainfall in
Snow Depth Not available.
UV 4 out of 12
Pollen 7.00 out of 12
Air Quality Not available.
Flu Activity Sporadic
SPECI KRDM 031703Z VRB03KT 10SM BKN031 12/05 A3004 RMK AO2 T01170050

More Conditions Fewer Conditions

10-Day Weather Forecast

×

Almanac

Astronomy

Jun. 03, 2015 Rise Set
Actual Time
Civil Twilight
Nautical Twilight
Astronomical Twilight
Moon
Length of Visible Light
Length of Day
Tomorrow will be .
, % of the Moon is Illuminated

Today's Extremes

State Highs State Lows

Community

WunderPhotos

Upload Photos

1,826,264 photos uploaded!

WunderBlogs® & News

Nearby

Air Quality

  Air Quality AQ Index Pollutant
Not available.

Snow Depth

Station Depth Elevation

Earthquake Activity

City Distance Mag. Time & Date
Minimum magnitude displayed is 2.5.

Coastal Water Temperatures

Place Temperature

Stations

Nearby Weather Stations

Station Location Temp. Windchill Dew Point Humidity Wind Precip. Elev Updated Type